logo
Search for airport 
image banner adimage banner adimage banner ad
image banner ad

YSGN - Strathgordon

Located in Strathgordon, Australia

ICAO - , IATA -

Data provided by Airmate  

General information

Coordinates: S42°46'11" E146°2'47"
Elevation is 1039 feet MSL.
Magnetic variation is 14° East
View others Airports in Tasmania

Operational data

Special qualification required
Current time UTC:
Current local time:
Weather at : - ( 0 km )
METAR: TJBQ 131650Z 07018KT 10SM CLR 31/22 A3007
View NOTAMs / SUP AIP / TFR affecting this airport [VIEW]
Communications frequencies: [VIEW]

Runways:

Airport contact information

Address: Strathgordon Australia

Satellite view of YSGN